Date,TemperatureHighF,TemperatureAvgF,TemperatureLowF,DewpointHighF,DewpointAvgF,DewpointLowF,HumidityHigh,HumidityAvg,HumidityLow,PressureMaxIn,PressureMinIn,WindSpeedMaxMPH,WindSpeedAvgMPH,GustSpeedMaxMPH,PrecipitationSumIn
2013-10-1,85.6,65.5,52.9,61.3,56.7,52.6,99,79,36,29.98,29.84,4,1,0,0.00
2013-10-2,86.7,67.3,52.7,62.8,58.1,52.4,99,78,38,30.00,29.87,6,1,0,0.00
2013-10-3,88.5,67.3,56.1,64.3,60.1,55.8,99,81,40,29.97,29.86,5,1,0,0.00
2013-10-4,90.7,68.9,55.8,64.5,60.4,55.5,99,79,38,30.00,29.88,7,1,0,0.00
2013-10-5,91.4,69.9,57.7,65.4,61.0,57.4,99,78,38,29.99,29.83,6,1,0,0.00
2013-10-6,82.6,67.5,55.9,66.0,60.4,55.6,99,81,49,29.87,29.69,11,2,0,0.00
2013-10-7,71.6,61.0,51.1,64.5,56.0,49.4,99,85,51,29.83,29.61,10,2,0,1.14
2013-10-8,75.6,57.0,46.6,51.9,49.2,45.6,99,79,41,29.99,29.82,6,1,0,0.00
2013-10-9,80.6,58.5,42.3,51.6,47.2,42.0,99,74,31,30.04,29.88,4,1,0,0.00
2013-10-10,77.7,58.5,42.3,54.3,48.8,42.0,99,75,40,29.94,29.81,8,2,0,0.00
2013-10-11,80.2,62.2,46.4,57.1,52.6,46.1,99,75,40,29.87,29.74,11,2,0,0.00
2013-10-12,79.5,62.2,48.7,59.8,55.5,48.4,99,82,47,29.90,29.79,8,1,0,0.00
2013-10-13,74.1,63.6,58.1,64.5,60.9,57.8,99,92,66,30.02,29.89,6,1,0,0.20
2013-10-14,71.4,61.9,54.9,63.8,58.9,54.6,99,91,68,30.05,29.94,6,1,0,0.01
2013-10-15,72.1,60.6,54.9,58.8,57.0,54.6,99,89,63,29.99,29.85,6,1,0,0.01
2013-10-16,76.1,60.9,50.9,58.5,55.1,50.6,99,84,52,29.88,29.75,4,0,0,0.00
2013-10-17,71.6,62.0,54.7,65.1,60.5,54.1,99,95,80,29.77,29.64,9,2,0,0.02
2013-10-18,77.4,58.5,45.7,54.6,51.2,45.4,99,80,42,29.83,29.71,7,2,0,0.00
2013-10-19,69.3,56.7,46.6,57.5,51.7,45.8,99,85,53,29.76,29.64,5,0,0,0.00
2013-10-20,74.7,52.2,37.4,46.1,41.7,29.9,99,75,23,29.88,29.74,5,1,0,0.00
2013-10-21,72.9,52.0,35.8,51.1,45.1,35.5,99,81,42,29.93,29.78,7,1,0,0.00
2013-10-22,75.6,57.9,48.4,56.1,49.8,46.6,99,78,39,29.81,29.59,6,1,0,0.00
2013-10-23,61.0,47.9,36.5,47.5,36.9,28.2,99,70,36,29.81,29.53,11,2,0,0.00
2013-10-24,60.4,44.5,31.8,36.2,32.0,27.1,88,64,37,29.93,29.81,5,2,0,0.00
2013-10-25,51.4,39.5,27.9,35.0,27.1,23.4,89,64,36,30.13,29.93,9,2,0,0.00
2013-10-26,63.0,40.7,21.9,37.0,29.5,21.7,99,71,26,30.10,29.82,7,1,0,0.00
2013-10-27,72.5,55.5,41.2,48.0,42.5,36.3,96,64,37,29.91,29.82,7,1,0,0.00
2013-10-28,64.9,52.7,44.6,58.6,50.8,44.3,99,94,70,30.05,29.89,4,0,0,0.10
2013-10-29,74.7,56.8,45.1,56.0,49.5,44.8,99,81,38,30.14,30.02,4,0,0,0.00
2013-10-30,81.1,62.3,50.4,56.7,53.4,50.1,99,77,39,30.09,29.95,5,1,0,0.00
2013-10-31,66.7,60.5,51.6,61.0,55.6,51.3,99,85,65,29.98,29.66,10,2,0,0.01